sensor_id;sensor_type;location;lat;lon;timestamp;pressure;altitude;pressure_sealevel;temperature;humidity
75891;BME280;64571;47.512;19.054;2023-03-16T00:00:47;100401.62;;;5.68;43.90
75891;BME280;64571;47.512;19.054;2023-03-16T00:03:50;100399.09;;;5.67;44.30
75891;BME280;64571;47.512;19.054;2023-03-16T00:06:52;100403.78;;;5.66;44.38
75891;BME280;64571;47.512;19.054;2023-03-16T00:09:55;100410.37;;;5.60;44.77
75891;BME280;64571;47.512;19.054;2023-03-16T00:12:57;100414.75;;;5.56;44.93
75891;BME280;64571;47.512;19.054;2023-03-16T00:16:01;100418.31;;;5.51;44.97
75891;BME280;64571;47.512;19.054;2023-03-16T00:19:05;100402.19;;;5.33;45.17
75891;BME280;64571;47.512;19.054;2023-03-16T00:22:08;100426.50;;;5.41;45.81
75891;BME280;64571;47.512;19.054;2023-03-16T00:25:12;100427.03;;;5.38;45.91
75891;BME280;64571;47.512;19.054;2023-03-16T00:28:15;100429.47;;;5.34;45.88
75891;BME280;64571;47.512;19.054;2023-03-16T00:31:19;100428.31;;;5.30;46.54
75891;BME280;64571;47.512;19.054;2023-03-16T00:34:21;100437.69;;;5.29;46.31
75891;BME280;64571;47.512;19.054;2023-03-16T00:37:25;100438.47;;;5.25;46.91
75891;BME280;64571;47.512;19.054;2023-03-16T00:40:28;100437.66;;;5.24;47.05
75891;BME280;64571;47.512;19.054;2023-03-16T00:43:33;100427.97;;;5.22;47.18
75891;BME280;64571;47.512;19.054;2023-03-16T00:46:42;100416.00;;;5.06;46.97
75891;BME280;64571;47.512;19.054;2023-03-16T00:49:45;100440.91;;;5.21;47.37
75891;BME280;64571;47.512;19.054;2023-03-16T00:52:47;100424.22;;;5.01;47.47
75891;BME280;64571;47.512;19.054;2023-03-16T00:55:50;100447.16;;;5.12;47.27
75891;BME280;64571;47.512;19.054;2023-03-16T00:58:54;100451.56;;;5.13;47.14
75891;BME280;64571;47.512;19.054;2023-03-16T01:01:59;100452.69;;;5.12;47.35
75891;BME280;64571;47.512;19.054;2023-03-16T01:05:02;100435.75;;;4.98;47.57
75891;BME280;64571;47.512;19.054;2023-03-16T01:08:09;100463.41;;;5.13;47.34
75891;BME280;64571;47.512;19.054;2023-03-16T01:11:15;100441.25;;;4.98;47.72
75891;BME280;64571;47.512;19.054;2023-03-16T01:14:19;100461.22;;;5.10;47.52
75891;BME280;64571;47.512;19.054;2023-03-16T01:17:22;100461.69;;;5.02;47.63
75891;BME280;64571;47.512;19.054;2023-03-16T01:20:24;100466.03;;;4.98;48.11
75891;BME280;64571;47.512;19.054;2023-03-16T01:23:28;100462.12;;;4.94;48.25
75891;BME280;64571;47.512;19.054;2023-03-16T01:26:31;100462.09;;;4.89;48.31
75891;BME280;64571;47.512;19.054;2023-03-16T01:29:34;100457.87;;;4.81;48.54
75891;BME280;64571;47.512;19.054;2023-03-16T01:32:38;100461.44;;;4.81;48.58
75891;BME280;64571;47.512;19.054;2023-03-16T01:35:51;100456.53;;;4.83;48.95
75891;BME280;64571;47.512;19.054;2023-03-16T01:38:53;100456.53;;;4.83;48.61
75891;BME280;64571;47.512;19.054;2023-03-16T01:41:57;100434.91;;;4.70;48.40
75891;BME280;64571;47.512;19.054;2023-03-16T01:45:00;100431.88;;;4.72;48.33
75891;BME280;64571;47.512;19.054;2023-03-16T01:48:04;100461.97;;;4.78;48.52
75891;BME280;64571;47.512;19.054;2023-03-16T01:51:11;100465.50;;;4.74;48.63
75891;BME280;64571;47.512;19.054;2023-03-16T01:54:32;100446.41;;;4.67;48.49
75891;BME280;64571;47.512;19.054;2023-03-16T01:57:39;100451.94;;;4.67;48.95
75891;BME280;64571;47.512;19.054;2023-03-16T02:00:44;100476.25;;;4.75;48.94
75891;BME280;64571;47.512;19.054;2023-03-16T02:03:47;100479.00;;;4.75;48.63
75891;BME280;64571;47.512;19.054;2023-03-16T02:06:52;100466.78;;;4.66;48.57
75891;BME280;64571;47.512;19.054;2023-03-16T02:09:59;100485.41;;;4.81;48.94
75891;BME280;64571;47.512;19.054;2023-03-16T02:13:03;100472.03;;;4.68;48.60
75891;BME280;64571;47.512;19.054;2023-03-16T02:16:07;100493.09;;;4.79;48.54
75891;BME280;64571;47.512;19.054;2023-03-16T02:19:23;100482.19;;;4.67;48.60
75891;BME280;64571;47.512;19.054;2023-03-16T02:22:31;100501.63;;;4.77;48.57
75891;BME280;64571;47.512;19.054;2023-03-16T02:25:42;100508.19;;;4.76;48.81
75891;BME280;64571;47.512;19.054;2023-03-16T02:32:16;100511.47;;;4.73;48.99
75891;BME280;64571;47.512;19.054;2023-03-16T02:35:19;100517.88;;;4.79;49.02
75891;BME280;64571;47.512;19.054;2023-03-16T02:38:22;100504.66;;;4.59;49.33
75891;BME280;64571;47.512;19.054;2023-03-16T02:41:25;100519.91;;;4.67;49.55
75891;BME280;64571;47.512;19.054;2023-03-16T02:44:34;100509.34;;;4.58;49.53
75891;BME280;64571;47.512;19.054;2023-03-16T02:47:42;100514.03;;;4.58;49.70
75891;BME280;64571;47.512;19.054;2023-03-16T02:50:48;100536.09;;;4.63;49.86
75891;BME280;64571;47.512;19.054;2023-03-16T02:53:51;100527.72;;;4.53;50.04
75891;BME280;64571;47.512;19.054;2023-03-16T02:56:54;100524.63;;;4.49;50.49
75891;BME280;64571;47.512;19.054;2023-03-16T02:59:57;100545.72;;;4.61;50.82
75891;BME280;64571;47.512;19.054;2023-03-16T03:03:00;100550.41;;;4.60;50.58
75891;BME280;64571;47.512;19.054;2023-03-16T03:06:03;100530.66;;;4.46;50.72
75891;BME280;64571;47.512;19.054;2023-03-16T03:09:08;100556.91;;;4.54;50.81
75891;BME280;64571;47.512;19.054;2023-03-16T03:12:13;100555.56;;;4.56;50.80
75891;BME280;64571;47.512;19.054;2023-03-16T03:15:16;100537.94;;;4.36;51.19
75891;BME280;64571;47.512;19.054;2023-03-16T03:18:20;100563.75;;;4.51;51.11
75891;BME280;64571;47.512;19.054;2023-03-16T03:21:23;100549.00;;;4.41;51.27
75891;BME280;64571;47.512;19.054;2023-03-16T03:24:27;100549.28;;;4.39;51.20
75891;BME280;64571;47.512;19.054;2023-03-16T03:27:31;100572.56;;;4.53;50.83
75891;BME280;64571;47.512;19.054;2023-03-16T03:30:37;100579.25;;;4.57;51.07
75891;BME280;64571;47.512;19.054;2023-03-16T03:33:39;100565.91;;;4.49;51.11
75891;BME280;64571;47.512;19.054;2023-03-16T03:36:42;100581.09;;;4.52;51.44
75891;BME280;64571;47.512;19.054;2023-03-16T03:39:46;100586.00;;;4.50;51.67
75891;BME280;64571;47.512;19.054;2023-03-16T03:42:51;100591.78;;;4.48;51.55
75891;BME280;64571;47.512;19.054;2023-03-16T03:46:02;100578.22;;;4.42;51.69
75891;BME280;64571;47.512;19.054;2023-03-16T03:49:05;100582.56;;;4.38;51.81
75891;BME280;64571;47.512;19.054;2023-03-16T03:52:08;100601.12;;;4.47;51.69
75891;BME280;64571;47.512;19.054;2023-03-16T03:55:11;100603.53;;;4.44;52.10
75891;BME280;64571;47.512;19.054;2023-03-16T03:58:14;100602.97;;;4.42;52.14
75891;BME280;64571;47.512;19.054;2023-03-16T04:01:16;100591.22;;;4.29;52.30
75891;BME280;64571;47.512;19.054;2023-03-16T04:04:20;100592.31;;;4.28;52.36
75891;BME280;64571;47.512;19.054;2023-03-16T04:07:22;100612.22;;;4.36;52.45
75891;BME280;64571;47.512;19.054;2023-03-16T04:10:27;100610.47;;;4.29;52.64
75891;BME280;64571;47.512;19.054;2023-03-16T04:13:31;100590.25;;;4.19;52.80
75891;BME280;64571;47.512;19.054;2023-03-16T04:16:34;100617.97;;;4.34;52.41
75891;BME280;64571;47.512;19.054;2023-03-16T04:19:36;100627.31;;;4.33;52.29
75891;BME280;64571;47.512;19.054;2023-03-16T04:22:42;100631.66;;;4.29;52.60
75891;BME280;64571;47.512;19.054;2023-03-16T04:25:45;100626.31;;;4.22;52.86
75891;BME280;64571;47.512;19.054;2023-03-16T04:28:50;100630.00;;;4.28;52.66
75891;BME280;64571;47.512;19.054;2023-03-16T04:31:54;100640.25;;;4.32;52.82
75891;BME280;64571;47.512;19.054;2023-03-16T04:34:57;100636.63;;;4.32;52.45
75891;BME280;64571;47.512;19.054;2023-03-16T04:38:04;100618.81;;;4.18;52.41
75891;BME280;64571;47.512;19.054;2023-03-16T04:41:08;100641.31;;;4.31;52.04
75891;BME280;64571;47.512;19.054;2023-03-16T04:44:13;100623.47;;;4.17;52.12
75891;BME280;64571;47.512;19.054;2023-03-16T04:47:16;100645.34;;;4.24;52.26
75891;BME280;64571;47.512;19.054;2023-03-16T04:50:19;100646.16;;;4.24;52.30
75891;BME280;64571;47.512;19.054;2023-03-16T04:53:23;100633.31;;;4.13;52.25
75891;BME280;64571;47.512;19.054;2023-03-16T04:56:28;100662.16;;;4.27;52.52
75891;BME280;64571;47.512;19.054;2023-03-16T04:59:32;100662.66;;;4.24;51.88
75891;BME280;64571;47.512;19.054;2023-03-16T05:02:36;100639.91;;;4.12;51.72
75891;BME280;64571;47.512;19.054;2023-03-16T05:05:39;100670.31;;;4.22;51.64
75891;BME280;64571;47.512;19.054;2023-03-16T05:08:44;100655.31;;;4.13;52.10
75891;BME280;64571;47.512;19.054;2023-03-16T05:11:47;100680.84;;;4.25;52.01
75891;BME280;64571;47.512;19.054;2023-03-16T05:14:50;100684.69;;;4.24;52.19
75891;BME280;64571;47.512;19.054;2023-03-16T05:17:54;100687.66;;;4.23;51.99
75891;BME280;64571;47.512;19.054;2023-03-16T05:20:59;100668.84;;;4.15;52.21
75891;BME280;64571;47.512;19.054;2023-03-16T05:24:05;100671.91;;;4.18;52.35
75891;BME280;64571;47.512;19.054;2023-03-16T05:27:08;100678.97;;;4.14;51.79
75891;BME280;64571;47.512;19.054;2023-03-16T05:30:12;100670.50;;;4.16;51.56
75891;BME280;64571;47.512;19.054;2023-03-16T05:33:15;100678.97;;;4.14;51.53
75891;BME280;64571;47.512;19.054;2023-03-16T05:36:21;100693.50;;;4.26;51.76
75891;BME280;64571;47.512;19.054;2023-03-16T05:39:24;100687.66;;;4.23;51.57
75891;BME280;64571;47.512;19.054;2023-03-16T05:42:27;100684.00;;;4.17;51.40
75891;BME280;64571;47.512;19.054;2023-03-16T05:45:29;100705.19;;;4.34;51.40
75891;BME280;64571;47.512;19.054;2023-03-16T05:48:33;100705.75;;;4.36;51.47
75891;BME280;64571;47.512;19.054;2023-03-16T05:51:37;100709.59;;;4.35;51.18
75891;BME280;64571;47.512;19.054;2023-03-16T05:54:40;100694.34;;;4.27;51.11
75891;BME280;64571;47.512;19.054;2023-03-16T05:57:45;100719.72;;;4.46;51.10
75891;BME280;64571;47.512;19.054;2023-03-16T06:00:47;100724.97;;;4.47;50.62
75891;BME280;64571;47.512;19.054;2023-03-16T06:03:52;100724.78;;;4.54;51.14
75891;BME280;64571;47.512;19.054;2023-03-16T06:06:55;100715.34;;;4.50;50.87
75891;BME280;64571;47.512;19.054;2023-03-16T06:09:58;100716.50;;;4.54;50.67
75891;BME280;64571;47.512;19.054;2023-03-16T06:13:01;100735.78;;;5.04;49.76
75891;BME280;64571;47.512;19.054;2023-03-16T06:16:04;100734.94;;;5.26;48.56
75891;BME280;64571;47.512;19.054;2023-03-16T06:19:08;100731.59;;;5.41;47.99
75891;BME280;64571;47.512;19.054;2023-03-16T06:22:11;100738.72;;;5.58;47.93
75891;BME280;64571;47.512;19.054;2023-03-16T06:25:14;100731.56;;;5.63;47.48
75891;BME280;64571;47.512;19.054;2023-03-16T06:28:18;100751.25;;;5.71;46.83
75891;BME280;64571;47.512;19.054;2023-03-16T06:31:21;100756.13;;;5.86;46.57
75891;BME280;64571;47.512;19.054;2023-03-16T06:34:24;100762.63;;;5.97;46.32
75891;BME280;64571;47.512;19.054;2023-03-16T06:37:29;100773.25;;;6.10;46.09
75891;BME280;64571;47.512;19.054;2023-03-16T06:40:33;100762.84;;;6.17;45.79
75891;BME280;64571;47.512;19.054;2023-03-16T06:43:36;100783.75;;;6.35;45.56
75891;BME280;64571;47.512;19.054;2023-03-16T06:46:39;100764.94;;;6.32;44.86
75891;BME280;64571;47.512;19.054;2023-03-16T06:49:43;100775.38;;;6.30;44.47
75891;BME280;64571;47.512;19.054;2023-03-16T06:52:46;100787.34;;;6.36;44.68
75891;BME280;64571;47.512;19.054;2023-03-16T06:55:49;100792.56;;;6.10;44.81
75891;BME280;64571;47.512;19.054;2023-03-16T06:58:53;100781.66;;;5.98;45.31
75891;BME280;64571;47.512;19.054;2023-03-16T07:01:55;100804.34;;;6.27;44.99
75891;BME280;64571;47.512;19.054;2023-03-16T07:04:58;100808.88;;;6.39;44.48
75891;BME280;64571;47.512;19.054;2023-03-16T07:08:02;100813.25;;;6.34;44.75
75891;BME280;64571;47.512;19.054;2023-03-16T07:11:06;100796.50;;;6.41;44.03
75891;BME280;64571;47.512;19.054;2023-03-16T07:14:09;100804.62;;;6.53;43.60
75891;BME280;64571;47.512;19.054;2023-03-16T07:17:13;100819.66;;;6.67;43.01
75891;BME280;64571;47.512;19.054;2023-03-16T07:20:16;100829.13;;;6.76;43.27
75891;BME280;64571;47.512;19.054;2023-03-16T07:23:19;100815.88;;;6.78;43.22
75891;BME280;64571;47.512;19.054;2023-03-16T07:26:22;100821.56;;;6.94;42.76
75891;BME280;64571;47.512;19.054;2023-03-16T07:29:27;100838.53;;;7.07;42.54
75891;BME280;64571;47.512;19.054;2023-03-16T07:32:30;100842.66;;;7.05;42.46
75891;BME280;64571;47.512;19.054;2023-03-16T07:35:34;100847.16;;;7.16;42.21
75891;BME280;64571;47.512;19.054;2023-03-16T07:38:37;100838.66;;;6.91;42.24
75891;BME280;64571;47.512;19.054;2023-03-16T07:41:40;100844.66;;;7.15;42.16
75891;BME280;64571;47.512;19.054;2023-03-16T07:44:47;100839.22;;;6.93;41.35
75891;BME280;64571;47.512;19.054;2023-03-16T07:47:53;100839.38;;;7.08;41.73
75891;BME280;64571;47.512;19.054;2023-03-16T07:50:56;100846.97;;;7.28;41.50
75891;BME280;64571;47.512;19.054;2023-03-16T07:53:59;100845.56;;;7.62;41.24
75891;BME280;64571;47.512;19.054;2023-03-16T07:57:01;100828.47;;;7.76;41.27
75891;BME280;64571;47.512;19.054;2023-03-16T08:00:05;100848.66;;;7.71;40.75
75891;BME280;64571;47.512;19.054;2023-03-16T08:03:13;100849.84;;;7.91;40.62
75891;BME280;64571;47.512;19.054;2023-03-16T08:06:18;100854.06;;;7.56;41.57
75891;BME280;64571;47.512;19.054;2023-03-16T08:09:21;100854.19;;;7.71;41.17
75891;BME280;64571;47.512;19.054;2023-03-16T08:12:24;100860.09;;;7.90;40.87
75891;BME280;64571;47.512;19.054;2023-03-16T08:15:27;100864.63;;;8.17;40.84
75891;BME280;64571;47.512;19.054;2023-03-16T08:18:32;100865.59;;;8.38;40.61
75891;BME280;64571;47.512;19.054;2023-03-16T08:21:35;100867.16;;;8.23;40.29
75891;BME280;64571;47.512;19.054;2023-03-16T08:24:58;100871.59;;;8.24;40.40
75891;BME280;64571;47.512;19.054;2023-03-16T08:28:00;100853.06;;;8.30;40.18
75891;BME280;64571;47.512;19.054;2023-03-16T08:31:06;100859.09;;;8.11;40.73
75891;BME280;64571;47.512;19.054;2023-03-16T08:34:09;100871.13;;;8.38;40.70
75891;BME280;64571;47.512;19.054;2023-03-16T08:37:13;100847.28;;;8.36;40.73
75891;BME280;64571;47.512;19.054;2023-03-16T08:40:18;100872.88;;;8.69;40.14
75891;BME280;64571;47.512;19.054;2023-03-16T08:43:24;100857.34;;;8.68;40.20
75891;BME280;64571;47.512;19.054;2023-03-16T08:46:28;100851.31;;;8.92;39.31
75891;BME280;64571;47.512;19.054;2023-03-16T08:49:32;100872.88;;;8.79;38.10
75891;BME280;64571;47.512;19.054;2023-03-16T08:52:37;100872.91;;;8.95;38.58
75891;BME280;64571;47.512;19.054;2023-03-16T08:55:41;100867.94;;;9.07;38.19
75891;BME280;64571;47.512;19.054;2023-03-16T08:58:43;100874.84;;;8.99;37.83
75891;BME280;64571;47.512;19.054;2023-03-16T09:01:47;100867.94;;;8.92;37.65
75891;BME280;64571;47.512;19.054;2023-03-16T09:04:50;100856.84;;;9.12;37.41
75891;BME280;64571;47.512;19.054;2023-03-16T09:07:54;100857.09;;;8.95;38.05
75891;BME280;64571;47.512;19.054;2023-03-16T09:11:05;100880.41;;;9.20;38.06
75891;BME280;64571;47.512;19.054;2023-03-16T09:14:09;100891.75;;;9.59;37.41
75891;BME280;64571;47.512;19.054;2023-03-16T09:17:13;100890.06;;;9.78;37.00
75891;BME280;64571;47.512;19.054;2023-03-16T09:20:16;100890.56;;;10.01;36.35
75891;BME280;64571;47.512;19.054;2023-03-16T09:23:36;100880.91;;;9.68;36.02
75891;BME280;64571;47.512;19.054;2023-03-16T09:26:39;100894.50;;;9.79;36.61
75891;BME280;64571;47.512;19.054;2023-03-16T09:29:42;100877.87;;;9.74;35.89
75891;BME280;64571;47.512;19.054;2023-03-16T09:32:46;100887.56;;;9.77;36.84
75891;BME280;64571;47.512;19.054;2023-03-16T09:35:50;100900.63;;;9.66;36.64
75891;BME280;64571;47.512;19.054;2023-03-16T09:38:53;100898.09;;;9.90;36.28
75891;BME280;64571;47.512;19.054;2023-03-16T09:48:17;100878.34;;;10.02;35.10
75891;BME280;64571;47.512;19.054;2023-03-16T09:51:35;100905.25;;;10.27;35.23
75891;BME280;64571;47.512;19.054;2023-03-16T09:55:23;100898.00;;;10.36;35.47
75891;BME280;64571;47.512;19.054;2023-03-16T09:58:22;100896.50;;;10.49;34.67
75891;BME280;64571;47.512;19.054;2023-03-16T10:05:09;100897.91;;;10.51;33.13
75891;BME280;64571;47.512;19.054;2023-03-16T10:08:24;100898.56;;;10.12;32.17
75891;BME280;64571;47.512;19.054;2023-03-16T10:11:41;100906.44;;;9.80;32.55
75891;BME280;64571;47.512;19.054;2023-03-16T10:21:17;100903.88;;;10.09;31.88
75891;BME280;64571;47.512;19.054;2023-03-16T10:27:44;100908.03;;;10.81;31.09
75891;BME280;64571;47.512;19.054;2023-03-16T10:30:50;100920.25;;;10.85;31.18
75891;BME280;64571;47.512;19.054;2023-03-16T10:34:00;100896.09;;;10.76;30.79
75891;BME280;64571;47.512;19.054;2023-03-16T10:37:04;100914.66;;;10.90;30.21
75891;BME280;64571;47.512;19.054;2023-03-16T10:40:07;100905.66;;;10.59;31.02
75891;BME280;64571;47.512;19.054;2023-03-16T10:43:13;100910.75;;;10.92;30.74
75891;BME280;64571;47.512;19.054;2023-03-16T10:46:16;100893.00;;;10.82;30.12
75891;BME280;64571;47.512;19.054;2023-03-16T10:52:37;100889.78;;;10.65;30.06
75891;BME280;64571;47.512;19.054;2023-03-16T10:55:42;100907.63;;;10.98;29.61
75891;BME280;64571;47.512;19.054;2023-03-16T10:58:46;100887.84;;;11.05;29.39
75891;BME280;64571;47.512;19.054;2023-03-16T11:01:48;100902.94;;;11.33;29.55
75891;BME280;64571;47.512;19.054;2023-03-16T11:04:51;100885.53;;;11.17;29.67
75891;BME280;64571;47.512;19.054;2023-03-16T11:08:01;100878.94;;;11.08;29.54
75891;BME280;64571;47.512;19.054;2023-03-16T11:11:15;100886.41;;;11.47;29.21
75891;BME280;64571;47.512;19.054;2023-03-16T11:14:21;100890.81;;;11.53;29.33
75891;BME280;64571;47.512;19.054;2023-03-16T11:20:35;100895.16;;;11.64;28.73
75891;BME280;64571;47.512;19.054;2023-03-16T11:23:39;100895.91;;;11.70;28.46
75891;BME280;64571;47.512;19.054;2023-03-16T11:26:52;100885.88;;;11.45;28.38
75891;BME280;64571;47.512;19.054;2023-03-16T11:30:01;100889.81;;;11.38;28.94
75891;BME280;64571;47.512;19.054;2023-03-16T11:33:12;100880.53;;;11.48;28.39
75891;BME280;64571;47.512;19.054;2023-03-16T11:36:29;100878.75;;;11.62;28.26
75891;BME280;64571;47.512;19.054;2023-03-16T11:40:40;100876.59;;;11.54;27.95
75891;BME280;64571;47.512;19.054;2023-03-16T11:47:14;100865.88;;;12.20;26.84
75891;BME280;64571;47.512;19.054;2023-03-16T11:50:46;100863.63;;;12.22;26.67
75891;BME280;64571;47.512;19.054;2023-03-16T12:00:56;100864.09;;;12.29;26.07
75891;BME280;64571;47.512;19.054;2023-03-16T12:04:15;100861.78;;;12.55;26.05
75891;BME280;64571;47.512;19.054;2023-03-16T12:14:28;100854.56;;;12.11;23.99
75891;BME280;64571;47.512;19.054;2023-03-16T12:17:36;100841.91;;;11.41;23.50
75891;BME280;64571;47.512;19.054;2023-03-16T12:20:52;100850.22;;;11.76;23.17
75891;BME280;64571;47.512;19.054;2023-03-16T12:24:02;100859.03;;;12.12;23.65
75891;BME280;64571;47.512;19.054;2023-03-16T12:27:07;100847.66;;;12.27;23.02
75891;BME280;64571;47.512;19.054;2023-03-16T12:30:38;100846.13;;;12.40;22.70
75891;BME280;64571;47.512;19.054;2023-03-16T12:34:00;100849.72;;;12.40;21.08
75891;BME280;64571;47.512;19.054;2023-03-16T12:40:25;100837.75;;;12.78;19.00
75891;BME280;64571;47.512;19.054;2023-03-16T12:50:51;100846.97;;;12.97;19.88
75891;BME280;64571;47.512;19.054;2023-03-16T12:53:54;100847.31;;;13.09;20.38
75891;BME280;64571;47.512;19.054;2023-03-16T12:57:07;100833.53;;;12.99;20.54
75891;BME280;64571;47.512;19.054;2023-03-16T13:00:13;100846.72;;;12.93;21.00
75891;BME280;64571;47.512;19.054;2023-03-16T13:03:20;100844.84;;;12.89;21.50
75891;BME280;64571;47.512;19.054;2023-03-16T13:06:23;100829.63;;;12.44;21.65
75891;BME280;64571;47.512;19.054;2023-03-16T13:09:27;100847.72;;;12.84;21.75
75891;BME280;64571;47.512;19.054;2023-03-16T13:12:34;100840.78;;;12.44;21.13
75891;BME280;64571;47.512;19.054;2023-03-16T13:15:44;100854.81;;;11.90;20.77
75891;BME280;64571;47.512;19.054;2023-03-16T13:18:51;100836.94;;;11.68;20.60
75891;BME280;64571;47.512;19.054;2023-03-16T13:22:17;100851.44;;;11.94;20.16
75891;BME280;64571;47.512;19.054;2023-03-16T13:25:24;100851.88;;;11.77;20.47
75891;BME280;64571;47.512;19.054;2023-03-16T13:28:41;100843.31;;;12.21;20.36
75891;BME280;64571;47.512;19.054;2023-03-16T13:31:46;100840.44;;;12.26;19.82
75891;BME280;64571;47.512;19.054;2023-03-16T13:34:57;100851.72;;;11.63;19.88
75891;BME280;64571;47.512;19.054;2023-03-16T13:38:04;100854.97;;;11.75;19.60
75891;BME280;64571;47.512;19.054;2023-03-16T13:41:09;100829.81;;;11.85;19.62
75891;BME280;64571;47.512;19.054;2023-03-16T13:44:16;100856.47;;;11.91;19.57
75891;BME280;64571;47.512;19.054;2023-03-16T13:47:20;100848.00;;;11.44;19.84
75891;BME280;64571;47.512;19.054;2023-03-16T13:50:23;100853.50;;;11.83;20.39
75891;BME280;64571;47.512;19.054;2023-03-16T13:53:27;100825.22;;;12.19;20.14
75891;BME280;64571;47.512;19.054;2023-03-16T13:56:31;100842.34;;;12.31;20.52
75891;BME280;64571;47.512;19.054;2023-03-16T13:59:34;100819.22;;;12.30;20.10
75891;BME280;64571;47.512;19.054;2023-03-16T14:02:41;100841.94;;;12.37;20.26
75891;BME280;64571;47.512;19.054;2023-03-16T14:05:45;100826.94;;;12.33;20.19
75891;BME280;64571;47.512;19.054;2023-03-16T14:08:51;100837.91;;;12.06;20.30
75891;BME280;64571;47.512;19.054;2023-03-16T14:11:55;100823.41;;;11.56;19.99
75891;BME280;64571;47.512;19.054;2023-03-16T14:14:59;100843.03;;;11.99;20.30
75891;BME280;64571;47.512;19.054;2023-03-16T14:18:13;100833.72;;;11.84;19.89
75891;BME280;64571;47.512;19.054;2023-03-16T14:21:22;100832.19;;;11.68;20.26
75891;BME280;64571;47.512;19.054;2023-03-16T14:24:30;100844.75;;;11.36;20.76
75891;BME280;64571;47.512;19.054;2023-03-16T14:30:50;100861.94;;;11.73;21.62
75891;BME280;64571;47.512;19.054;2023-03-16T14:33:59;100841.66;;;11.67;20.88
75891;BME280;64571;47.512;19.054;2023-03-16T14:40:30;100853.03;;;12.00;18.69
75891;BME280;64571;47.512;19.054;2023-03-16T14:43:35;100854.66;;;11.77;18.13
75891;BME280;64571;47.512;19.054;2023-03-16T14:46:39;100865.03;;;11.71;18.47
75891;BME280;64571;47.512;19.054;2023-03-16T14:49:43;100864.56;;;11.88;18.68
75891;BME280;64571;47.512;19.054;2023-03-16T14:52:46;100860.44;;;11.85;19.11
75891;BME280;64571;47.512;19.054;2023-03-16T14:55:49;100855.91;;;11.60;19.76
75891;BME280;64571;47.512;19.054;2023-03-16T14:58:51;100870.34;;;11.68;20.29
75891;BME280;64571;47.512;19.054;2023-03-16T15:01:54;100875.75;;;11.54;20.73
75891;BME280;64571;47.512;19.054;2023-03-16T15:04:59;100882.47;;;11.53;20.29
75891;BME280;64571;47.512;19.054;2023-03-16T15:08:04;100867.31;;;11.30;20.31
75891;BME280;64571;47.512;19.054;2023-03-16T15:11:08;100876.91;;;11.48;20.60
75891;BME280;64571;47.512;19.054;2023-03-16T15:14:11;100877.31;;;11.36;20.56
75891;BME280;64571;47.512;19.054;2023-03-16T15:17:36;100871.75;;;11.36;20.19
75891;BME280;64571;47.512;19.054;2023-03-16T15:20:42;100868.84;;;11.17;19.97
75891;BME280;64571;47.512;19.054;2023-03-16T15:23:46;100868.91;;;11.07;19.86
75891;BME280;64571;47.512;19.054;2023-03-16T15:26:50;100883.16;;;11.00;20.00
75891;BME280;64571;47.512;19.054;2023-03-16T15:29:53;100875.38;;;10.97;20.24
75891;BME280;64571;47.512;19.054;2023-03-16T15:32:56;100862.34;;;10.93;20.35
75891;BME280;64571;47.512;19.054;2023-03-16T15:36:01;100884.59;;;10.93;20.73
75891;BME280;64571;47.512;19.054;2023-03-16T15:39:04;100878.19;;;10.92;21.08
75891;BME280;64571;47.512;19.054;2023-03-16T15:42:12;100878.00;;;10.78;21.58
75891;BME280;64571;47.512;19.054;2023-03-16T15:45:18;100891.34;;;10.81;21.20
75891;BME280;64571;47.512;19.054;2023-03-16T15:48:22;100894.72;;;10.73;20.34
75891;BME280;64571;47.512;19.054;2023-03-16T15:51:28;100904.19;;;10.67;20.39
75891;BME280;64571;47.512;19.054;2023-03-16T15:54:34;100908.13;;;10.61;20.01
75891;BME280;64571;47.512;19.054;2023-03-16T15:57:38;100904.84;;;10.54;20.10
75891;BME280;64571;47.512;19.054;2023-03-16T16:00:40;100887.66;;;10.42;20.60
75891;BME280;64571;47.512;19.054;2023-03-16T16:03:43;100914.28;;;10.53;20.78
75891;BME280;64571;47.512;19.054;2023-03-16T16:06:47;100888.22;;;10.38;20.91
75891;BME280;64571;47.512;19.054;2023-03-16T16:09:50;100914.34;;;10.43;20.93
75891;BME280;64571;47.512;19.054;2023-03-16T16:12:54;100915.25;;;10.28;21.37
75891;BME280;64571;47.512;19.054;2023-03-16T16:15:58;100921.31;;;10.30;20.98
75891;BME280;64571;47.512;19.054;2023-03-16T16:19:01;100927.72;;;10.30;21.34
75891;BME280;64571;47.512;19.054;2023-03-16T16:22:04;100938.00;;;10.25;21.65
75891;BME280;64571;47.512;19.054;2023-03-16T16:25:08;100929.38;;;10.26;21.54
75891;BME280;64571;47.512;19.054;2023-03-16T16:28:16;100950.22;;;10.24;21.48
75891;BME280;64571;47.512;19.054;2023-03-16T16:31:23;100950.50;;;10.17;21.56
75891;BME280;64571;47.512;19.054;2023-03-16T16:34:27;100954.41;;;10.11;20.77
75891;BME280;64571;47.512;19.054;2023-03-16T16:37:29;100954.16;;;10.02;20.38
75891;BME280;64571;47.512;19.054;2023-03-16T16:40:35;100963.06;;;10.04;20.30
75891;BME280;64571;47.512;19.054;2023-03-16T16:43:41;100963.59;;;10.01;20.51
75891;BME280;64571;47.512;19.054;2023-03-16T16:46:47;100961.97;;;9.95;20.67
75891;BME280;64571;47.512;19.054;2023-03-16T16:49:50;100969.19;;;9.91;21.18
75891;BME280;64571;47.512;19.054;2023-03-16T16:52:54;100971.94;;;9.86;21.23
75891;BME280;64571;47.512;19.054;2023-03-16T16:55:56;100957.25;;;9.70;21.33
75891;BME280;64571;47.512;19.054;2023-03-16T16:59:09;100987.78;;;9.80;22.59
75891;BME280;64571;47.512;19.054;2023-03-16T17:02:25;100982.78;;;9.77;23.54
75891;BME280;64571;47.512;19.054;2023-03-16T17:05:30;101000.25;;;9.68;23.54
75891;BME280;64571;47.512;19.054;2023-03-16T17:08:33;101004.69;;;9.58;24.29